Thomasville, Pennsylvania
Current Conditions -  °F | °C
As of 9:53 AM on Wednesday 28 Jan 2015 (Local Time) from KTHV Reporting Station
Clear Clear  
Wind Chill: 10°   Ceiling: Unl
Heat Index: 23°   Visibility: 10mi
Dew Point:   Wind: 15mph
Humidity: 40%   Direction: 330°NNW
Pressure: 30.2"   Gusts: NA
Location:  39.93°N, 76.85°W
Report Text: KTHV 281453Z AUTO 33013KT 10SM CLR M05/M17 A3020 RMK AO2 SLP235 T10501167 51026
Loading
Personal Weather Stations






























Interactive Weather Map New forecast layout! Learn more

10-Day Weather Forecast

Advertisements
Track Severe Weather on mobile